createdAt,value
2023-03-20T00:00:59.524Z,6.99
2023-03-20T00:03:28.250Z,6.96
2023-03-20T00:05:56.148Z,6.93
2023-03-20T00:08:24.028Z,6.82
2023-03-20T00:10:52.012Z,6.78
2023-03-20T00:13:26.109Z,6.75
2023-03-20T00:15:55.913Z,6.64
2023-03-20T00:18:24.976Z,6.75
2023-03-20T00:20:53.714Z,6.68
2023-03-20T00:23:21.843Z,6.76
2023-03-20T00:25:49.789Z,6.64
2023-03-20T00:28:40.930Z,6.62
2023-03-20T00:31:20.178Z,6.50
2023-03-20T00:33:48.424Z,6.31
2023-03-20T00:36:16.283Z,6.34
2023-03-20T00:38:44.336Z,6.26
2023-03-20T00:41:24.442Z,6.33
2023-03-20T00:43:54.796Z,6.40
2023-03-20T00:46:24.880Z,6.33
2023-03-20T00:48:53.456Z,6.37
2023-03-20T00:51:21.440Z,6.43
2023-03-20T00:53:49.299Z,6.42
2023-03-20T00:56:33.243Z,6.37
2023-03-20T00:59:02.737Z,6.35
2023-03-20T01:01:32.571Z,6.34
2023-03-20T01:04:01.902Z,6.47
2023-03-20T01:06:31.428Z,6.35
2023-03-20T01:09:00.197Z,6.41
2023-03-20T01:11:28.749Z,6.24
2023-03-20T01:13:57.332Z,6.21
2023-03-20T01:16:27.204Z,6.18
2023-03-20T01:18:56.886Z,6.14
2023-03-20T01:21:25.068Z,6.16
2023-03-20T01:23:52.974Z,6.17
2023-03-20T01:26:25.238Z,6.08
2023-03-20T01:28:53.119Z,6.13
2023-03-20T01:31:21.020Z,5.84
2023-03-20T01:33:49.085Z,6.14
2023-03-20T01:36:22.247Z,5.97
2023-03-20T01:38:56.534Z,6.20
2023-03-20T01:41:25.778Z,6.11
2023-03-20T01:43:54.369Z,5.88
2023-03-20T01:46:25.886Z,5.99
2023-03-20T01:49:09.105Z,5.82
2023-03-20T01:51:38.382Z,5.97
2023-03-20T01:54:10.406Z,5.89
2023-03-20T01:56:42.378Z,5.98
2023-03-20T01:59:13.753Z,5.98
2023-03-20T02:01:43.334Z,5.97
2023-03-20T02:04:13.043Z,5.93
2023-03-20T02:06:45.047Z,5.86
2023-03-20T02:09:13.365Z,5.73
2023-03-20T02:11:42.814Z,5.67
2023-03-20T02:14:11.573Z,5.58
2023-03-20T02:16:39.594Z,5.38
2023-03-20T02:19:15.655Z,5.33
2023-03-20T02:22:31.298Z,5.40
2023-03-20T02:25:37.838Z,5.25
2023-03-20T02:28:39.962Z,5.26
2023-03-20T02:31:32.755Z,5.30
2023-03-20T02:34:38.673Z,5.01
2023-03-20T02:37:49.940Z,5.18
2023-03-20T02:40:26.267Z,5.07
2023-03-20T02:43:00.372Z,4.99
2023-03-20T02:45:30.652Z,4.99
2023-03-20T02:48:11.725Z,5.00
2023-03-20T02:50:49.665Z,4.91
2023-03-20T02:53:29.327Z,4.84
2023-03-20T02:56:04.332Z,4.80
2023-03-20T02:58:39.832Z,4.86
2023-03-20T03:01:15.024Z,4.75
2023-03-20T03:03:48.733Z,4.89
2023-03-20T03:06:23.032Z,4.89
2023-03-20T03:09:00.131Z,4.93
2023-03-20T03:11:28.124Z,4.87
2023-03-20T03:13:58.074Z,4.91
2023-03-20T03:16:30.231Z,4.85
2023-03-20T03:19:07.133Z,4.88
2023-03-20T03:21:37.356Z,4.94
2023-03-20T03:24:07.781Z,4.93
2023-03-20T03:26:39.161Z,5.04
2023-03-20T03:29:13.518Z,5.03
2023-03-20T03:31:42.618Z,5.04
2023-03-20T03:34:14.892Z,5.05
2023-03-20T03:36:52.736Z,4.90
2023-03-20T03:39:28.500Z,4.80
2023-03-20T03:42:02.943Z,4.62
2023-03-20T03:44:36.583Z,4.79
2023-03-20T03:47:08.822Z,4.88
2023-03-20T03:49:40.883Z,4.80
2023-03-20T03:52:13.037Z,4.78
2023-03-20T03:54:46.599Z,4.70
2023-03-20T03:57:17.950Z,4.68
2023-03-20T03:59:49.022Z,4.70
2023-03-20T04:02:19.764Z,4.79
2023-03-20T04:04:51.845Z,4.68
2023-03-20T04:07:19.949Z,4.44
2023-03-20T04:09:49.284Z,4.59
2023-03-20T04:12:38.187Z,4.58
2023-03-20T04:15:07.276Z,4.53
2023-03-20T04:17:35.936Z,4.56
2023-03-20T04:20:06.967Z,4.51
2023-03-20T04:22:35.154Z,4.41
2023-03-20T04:25:06.952Z,4.34
2023-03-20T04:27:34.929Z,4.24
2023-03-20T04:30:02.964Z,4.16
2023-03-20T04:32:31.046Z,4.19
2023-03-20T04:34:59.051Z,4.27
2023-03-20T04:37:26.927Z,4.20
2023-03-20T04:39:54.821Z,4.17
2023-03-20T04:42:24.060Z,4.17
2023-03-20T04:44:52.000Z,4.22
2023-03-20T04:47:19.902Z,4.12
2023-03-20T04:49:47.821Z,4.28
2023-03-20T04:52:15.834Z,4.17
2023-03-20T04:54:43.751Z,4.01
2023-03-20T04:57:11.636Z,4.03
2023-03-20T04:59:41.009Z,4.05
2023-03-20T05:02:08.918Z,4.01
2023-03-20T05:04:36.879Z,3.98
2023-03-20T05:07:04.790Z,4.01
2023-03-20T05:09:32.659Z,3.81
2023-03-20T05:12:00.518Z,3.95
2023-03-20T05:14:28.452Z,3.99
2023-03-20T05:16:57.819Z,4.08
2023-03-20T05:19:25.796Z,4.12
2023-03-20T05:21:53.687Z,4.21
2023-03-20T05:24:22.189Z,4.29
2023-03-20T05:26:50.105Z,4.39
2023-03-20T05:29:18.012Z,4.45
2023-03-20T05:31:45.967Z,4.47
2023-03-20T05:34:15.230Z,4.47
2023-03-20T05:36:43.149Z,4.56
2023-03-20T05:39:11.693Z,4.65
2023-03-20T05:41:39.668Z,4.68
2023-03-20T05:44:07.652Z,4.87
2023-03-20T05:46:35.562Z,5.04
2023-03-20T05:49:03.595Z,5.06
2023-03-20T05:51:32.858Z,5.08
2023-03-20T05:54:00.802Z,5.24
2023-03-20T05:56:28.754Z,5.24
2023-03-20T05:58:56.618Z,5.28
2023-03-20T06:01:24.510Z,5.33
2023-03-20T06:03:52.386Z,5.49
2023-03-20T06:06:20.518Z,5.52
2023-03-20T06:08:49.834Z,5.62
2023-03-20T06:11:17.804Z,5.67
2023-03-20T06:13:45.744Z,5.61
2023-03-20T06:16:13.678Z,5.76
2023-03-20T06:18:41.633Z,5.82
2023-03-20T06:21:09.613Z,5.94
2023-03-20T06:23:37.489Z,5.88
2023-03-20T06:26:07.275Z,5.93
2023-03-20T06:28:35.328Z,6.09
2023-03-20T06:31:03.346Z,6.15
2023-03-20T06:33:31.453Z,6.25
2023-03-20T06:35:59.407Z,6.27
2023-03-20T06:38:27.375Z,6.35
2023-03-20T06:40:55.273Z,6.46
2023-03-20T06:43:24.605Z,6.60
2023-03-20T06:45:52.694Z,6.53
2023-03-20T06:48:22.076Z,6.73
2023-03-20T06:50:50.327Z,6.82
2023-03-20T06:53:18.532Z,6.81
2023-03-20T06:55:48.303Z,6.94
2023-03-20T06:58:16.771Z,7.07
2023-03-20T07:00:46.689Z,7.36
2023-03-20T07:03:15.829Z,7.57
2023-03-20T07:05:44.876Z,7.68
2023-03-20T07:08:13.118Z,7.73
2023-03-20T07:10:40.967Z,7.79
2023-03-20T07:13:09.346Z,7.90
2023-03-20T07:15:38.456Z,7.94
2023-03-20T07:18:08.514Z,8.20
2023-03-20T07:20:36.450Z,8.13
2023-03-20T07:23:04.337Z,8.41
2023-03-20T07:25:42.148Z,8.56
2023-03-20T07:28:10.668Z,8.78
2023-03-20T07:30:38.642Z,8.81
2023-03-20T07:33:07.963Z,8.93
2023-03-20T07:35:36.557Z,8.93
2023-03-20T07:38:04.690Z,9.03
2023-03-20T07:40:33.087Z,9.16
2023-03-20T07:43:01.277Z,9.14
2023-03-20T07:45:29.404Z,9.26
2023-03-20T07:47:57.602Z,9.42
2023-03-20T07:50:26.940Z,9.48
2023-03-20T07:52:54.827Z,9.52
2023-03-20T07:55:22.712Z,9.43
2023-03-20T07:57:51.095Z,9.51
2023-03-20T08:00:20.347Z,9.59
2023-03-20T08:02:49.818Z,9.62
2023-03-20T08:05:18.609Z,9.71
2023-03-20T08:07:48.006Z,9.87
2023-03-20T08:10:16.646Z,9.77
2023-03-20T08:12:44.842Z,9.85
2023-03-20T08:15:13.157Z,10.19
2023-03-20T08:17:43.809Z,10.30
2023-03-20T08:20:13.166Z,10.18
2023-03-20T08:22:41.350Z,10.29
2023-03-20T08:25:11.936Z,10.51
2023-03-20T08:27:40.227Z,10.67
2023-03-20T08:30:10.034Z,10.72
2023-03-20T08:32:38.853Z,10.86
2023-03-20T08:35:16.326Z,10.78
2023-03-20T08:37:50.117Z,10.91
2023-03-20T08:40:19.792Z,10.96
2023-03-20T08:42:47.760Z,11.11
2023-03-20T08:45:17.039Z,11.17
2023-03-20T08:47:45.004Z,11.11
2023-03-20T08:50:13.361Z,11.36
2023-03-20T08:52:43.972Z,11.48
2023-03-20T08:55:12.435Z,11.42
2023-03-20T08:57:41.841Z,11.58
2023-03-20T09:00:12.872Z,11.88
2023-03-20T09:02:41.185Z,11.95
2023-03-20T09:05:09.929Z,11.99
2023-03-20T09:07:38.219Z,12.20
2023-03-20T09:10:07.164Z,12.24
2023-03-20T09:12:36.008Z,12.34
2023-03-20T09:15:06.892Z,12.60
2023-03-20T09:17:34.890Z,12.70
2023-03-20T09:20:02.889Z,12.56
2023-03-20T09:22:31.044Z,13.01
2023-03-20T09:24:58.982Z,13.14
2023-03-20T09:27:26.914Z,13.31
2023-03-20T09:29:54.844Z,13.45
2023-03-20T09:32:24.094Z,13.53
2023-03-20T09:34:52.101Z,13.70
2023-03-20T09:37:20.197Z,13.69
2023-03-20T09:39:48.286Z,13.74
2023-03-20T09:42:30.081Z,13.60
2023-03-20T09:45:06.707Z,13.84
2023-03-20T09:47:42.047Z,13.95
2023-03-20T09:50:24.165Z,14.17
2023-03-20T09:52:59.276Z,14.16
2023-03-20T09:55:35.275Z,14.57
2023-03-20T09:58:13.429Z,14.53
2023-03-20T10:00:45.997Z,14.87
2023-03-20T10:03:20.980Z,15.08
2023-03-20T10:05:55.552Z,15.13
2023-03-20T10:08:29.339Z,15.24
2023-03-20T10:11:07.751Z,15.40
2023-03-20T10:13:56.778Z,15.97
2023-03-20T10:16:39.160Z,16.60
2023-03-20T10:19:19.186Z,17.56
2023-03-20T10:21:49.533Z,18.17
2023-03-20T10:24:23.401Z,18.55
2023-03-20T10:26:54.437Z,18.95
2023-03-20T10:29:33.298Z,19.52
2023-03-20T10:32:10.027Z,19.65
2023-03-20T10:34:54.447Z,20.08
2023-03-20T10:37:41.449Z,20.32
2023-03-20T10:40:24.766Z,20.20
2023-03-20T10:42:55.117Z,20.63
2023-03-20T10:45:32.731Z,20.89
2023-03-20T10:48:06.070Z,21.18
2023-03-20T10:50:42.531Z,21.51
2023-03-20T10:53:22.456Z,21.52
2023-03-20T10:55:51.343Z,21.37
2023-03-20T10:58:23.672Z,21.32
2023-03-20T11:00:59.371Z,21.45
2023-03-20T11:03:31.812Z,21.50
2023-03-20T11:06:09.619Z,21.96
2023-03-20T11:08:41.358Z,21.81
2023-03-20T11:11:10.449Z,22.27
2023-03-20T11:13:40.388Z,22.40
2023-03-20T11:16:19.435Z,22.15
2023-03-20T11:18:49.225Z,22.31
2023-03-20T11:21:22.798Z,22.75
2023-03-20T11:23:51.450Z,22.98
2023-03-20T11:26:20.932Z,23.25
2023-03-20T11:28:51.866Z,23.08
2023-03-20T11:31:26.029Z,22.92
2023-03-20T11:34:01.859Z,23.37
2023-03-20T11:36:33.231Z,23.50
2023-03-20T11:39:07.615Z,23.92
2023-03-20T11:41:35.617Z,23.66
2023-03-20T11:44:03.556Z,23.89
2023-03-20T11:46:31.990Z,24.38
2023-03-20T11:49:06.612Z,24.19
2023-03-20T11:51:38.169Z,24.25
2023-03-20T11:54:09.117Z,24.68
2023-03-20T11:56:37.765Z,24.78
2023-03-20T11:59:14.279Z,24.77
2023-03-20T12:01:48.907Z,24.85
2023-03-20T12:04:18.810Z,24.43
2023-03-20T12:06:54.363Z,24.94
2023-03-20T12:09:32.832Z,25.39
2023-03-20T12:12:03.682Z,25.07
2023-03-20T12:14:38.926Z,25.52
2023-03-20T12:17:33.746Z,26.01
2023-03-20T12:20:06.701Z,26.26
2023-03-20T12:22:43.182Z,26.41
2023-03-20T12:25:21.273Z,26.28
2023-03-20T12:27:54.127Z,26.72
2023-03-20T12:30:32.512Z,26.40
2023-03-20T12:33:05.567Z,26.68
2023-03-20T12:35:37.742Z,26.68
2023-03-20T12:38:19.760Z,26.61
2023-03-20T12:40:52.498Z,26.42
2023-03-20T12:43:26.667Z,26.39
2023-03-20T12:46:01.592Z,26.64
2023-03-20T12:48:50.775Z,26.67
2023-03-20T12:51:27.035Z,26.58
2023-03-20T12:54:09.051Z,27.06
2023-03-20T12:56:59.814Z,26.83
2023-03-20T12:59:34.677Z,26.91
2023-03-20T13:02:16.546Z,26.78
2023-03-20T13:04:57.693Z,27.16
2023-03-20T13:07:59.812Z,26.94
2023-03-20T13:10:36.283Z,26.69
2023-03-20T13:13:16.069Z,26.31
2023-03-20T13:16:05.146Z,25.69
2023-03-20T13:18:47.121Z,25.81
2023-03-20T13:21:21.007Z,25.83
2023-03-20T13:23:57.826Z,26.27
2023-03-20T13:26:37.663Z,26.47
2023-03-20T13:29:12.877Z,26.42
2023-03-20T13:31:51.540Z,26.67
2023-03-20T13:34:31.675Z,26.21
2023-03-20T13:37:23.452Z,25.91
2023-03-20T13:40:01.980Z,25.95
2023-03-20T13:42:37.989Z,25.29
2023-03-20T13:45:13.421Z,24.96
2023-03-20T13:47:41.534Z,24.86
2023-03-20T13:50:25.249Z,25.20
2023-03-20T13:53:00.817Z,24.85
2023-03-20T13:55:37.785Z,24.64
2023-03-20T13:58:29.696Z,24.81
2023-03-20T14:01:06.011Z,24.97
2023-03-20T14:03:37.613Z,24.86
2023-03-20T14:06:19.046Z,24.89
2023-03-20T14:08:49.979Z,24.82
2023-03-20T14:11:36.040Z,24.86
2023-03-20T14:14:11.586Z,24.89
2023-03-20T14:16:39.674Z,25.35
2023-03-20T14:19:15.313Z,25.19
2023-03-20T14:21:47.469Z,25.41
2023-03-20T14:24:19.649Z,25.37
2023-03-20T14:26:51.389Z,25.58
2023-03-20T14:29:34.624Z,25.39
2023-03-20T14:32:22.143Z,25.61
2023-03-20T14:34:52.040Z,25.21
2023-03-20T14:37:31.815Z,25.32
2023-03-20T14:40:05.260Z,25.24
2023-03-20T14:42:42.078Z,25.35
2023-03-20T14:45:29.277Z,25.56
2023-03-20T14:48:02.485Z,25.78
2023-03-20T14:50:35.557Z,25.64
2023-03-20T14:53:17.575Z,25.40
2023-03-20T14:55:53.975Z,25.41
2023-03-20T14:58:53.429Z,25.46
2023-03-20T15:01:44.545Z,25.13
2023-03-20T15:04:26.495Z,24.79
2023-03-20T15:06:58.956Z,24.71
2023-03-20T15:09:29.350Z,24.24
2023-03-20T15:12:04.100Z,23.66
2023-03-20T15:14:39.356Z,23.47
2023-03-20T15:17:19.500Z,23.07
2023-03-20T15:19:50.719Z,22.89
2023-03-20T15:22:21.779Z,22.88
2023-03-20T15:24:53.773Z,22.76
2023-03-20T15:27:22.630Z,22.59
2023-03-20T15:29:53.396Z,22.64
2023-03-20T15:32:23.824Z,22.58
2023-03-20T15:34:52.348Z,22.64
2023-03-20T15:37:24.586Z,22.66
2023-03-20T15:39:59.177Z,22.62
2023-03-20T15:42:28.177Z,22.72
2023-03-20T15:44:56.940Z,22.62
2023-03-20T15:47:27.064Z,22.62
2023-03-20T15:49:57.410Z,22.57
2023-03-20T15:52:32.857Z,22.30
2023-03-20T15:55:04.042Z,22.14
2023-03-20T15:57:36.087Z,21.95
2023-03-20T16:00:06.652Z,21.62
2023-03-20T16:02:37.177Z,21.16
2023-03-20T16:05:06.299Z,21.12
2023-03-20T16:07:34.717Z,21.04
2023-03-20T16:10:02.755Z,20.78
2023-03-20T16:12:30.804Z,20.57
2023-03-20T16:15:00.629Z,20.37
2023-03-20T16:17:29.028Z,20.33
2023-03-20T16:19:58.396Z,20.02
2023-03-20T16:22:29.186Z,20.13
2023-03-20T16:25:01.167Z,20.04
2023-03-20T16:27:31.583Z,19.89
2023-03-20T16:29:59.908Z,19.91
2023-03-20T16:32:37.015Z,19.79
2023-03-20T16:35:16.887Z,19.64
2023-03-20T16:37:49.631Z,19.34
2023-03-20T16:40:25.226Z,19.20
2023-03-20T16:42:54.914Z,19.21
2023-03-20T16:45:30.531Z,19.01
2023-03-20T16:48:25.770Z,18.86
2023-03-20T16:51:02.268Z,18.56
2023-03-20T16:53:38.079Z,18.63
2023-03-20T16:56:11.550Z,18.54
2023-03-20T16:58:41.240Z,18.46
2023-03-20T17:01:15.870Z,18.16
2023-03-20T17:03:51.107Z,18.08
2023-03-20T17:06:44.615Z,17.90
2023-03-20T17:09:27.609Z,17.61
2023-03-20T17:12:02.241Z,17.51
2023-03-20T17:14:30.903Z,17.36
2023-03-20T17:17:00.329Z,17.43
2023-03-20T17:19:28.457Z,17.63
2023-03-20T17:22:03.556Z,17.54
2023-03-20T17:24:31.690Z,17.39
2023-03-20T17:26:59.721Z,17.36
2023-03-20T17:29:27.764Z,17.36
2023-03-20T17:31:55.905Z,17.19
2023-03-20T17:34:24.020Z,17.31
2023-03-20T17:36:52.102Z,17.33
2023-03-20T17:39:22.573Z,17.31
2023-03-20T17:41:50.743Z,17.25
2023-03-20T17:44:18.660Z,17.25
2023-03-20T17:46:58.695Z,17.15
2023-03-20T17:49:28.280Z,16.97
2023-03-20T17:51:56.868Z,17.06
2023-03-20T17:54:26.800Z,17.13
2023-03-20T17:56:54.804Z,17.12
2023-03-20T17:59:24.994Z,17.13
2023-03-20T18:01:53.474Z,17.09
2023-03-20T18:04:25.513Z,16.81
2023-03-20T18:06:53.759Z,16.96
2023-03-20T18:09:21.869Z,16.83
2023-03-20T18:11:51.156Z,16.80
2023-03-20T18:14:19.412Z,16.54
2023-03-20T18:16:47.304Z,16.38
2023-03-20T18:19:24.419Z,16.12
2023-03-20T18:21:52.618Z,16.09
2023-03-20T18:24:20.692Z,15.80
2023-03-20T18:26:48.972Z,15.47
2023-03-20T18:29:18.778Z,15.35
2023-03-20T18:31:49.025Z,15.06
2023-03-20T18:34:17.721Z,14.88
2023-03-20T18:36:46.816Z,14.78
2023-03-20T18:39:18.721Z,14.86
2023-03-20T18:41:46.813Z,15.04
2023-03-20T18:44:15.002Z,15.04
2023-03-20T18:46:46.967Z,14.91
2023-03-20T18:49:16.793Z,14.82
2023-03-20T18:51:47.412Z,14.87
2023-03-20T18:54:15.459Z,14.84
2023-03-20T18:56:43.382Z,14.71
2023-03-20T18:59:13.950Z,14.60
2023-03-20T19:01:42.215Z,14.66
2023-03-20T19:04:11.808Z,14.69
2023-03-20T19:06:39.876Z,14.77
2023-03-20T19:09:10.932Z,14.76
2023-03-20T19:11:39.112Z,14.65
2023-03-20T19:14:07.044Z,14.63
2023-03-20T19:16:38.011Z,14.57
2023-03-20T19:19:08.169Z,14.52
2023-03-20T19:21:37.544Z,14.49
2023-03-20T19:24:07.760Z,14.46
2023-03-20T19:26:37.529Z,14.50
2023-03-20T19:29:09.181Z,14.57
2023-03-20T19:31:37.564Z,14.67
2023-03-20T19:34:06.812Z,14.64
2023-03-20T19:36:38.174Z,14.66
2023-03-20T19:39:09.233Z,14.56
2023-03-20T19:41:37.985Z,14.51
2023-03-20T19:44:07.011Z,14.48
2023-03-20T19:46:40.352Z,14.33
2023-03-20T19:49:19.069Z,14.21
2023-03-20T19:51:49.654Z,14.15
2023-03-20T19:54:17.961Z,14.15
2023-03-20T19:56:46.033Z,14.17
2023-03-20T19:59:16.559Z,14.23
2023-03-20T20:01:45.609Z,14.27
2023-03-20T20:04:13.666Z,14.12
2023-03-20T20:06:42.005Z,14.07
2023-03-20T20:09:11.666Z,14.27
2023-03-20T20:11:39.647Z,14.21
2023-03-20T20:14:13.667Z,14.08
2023-03-20T20:16:45.604Z,13.99
2023-03-20T20:19:18.688Z,14.01
2023-03-20T20:24:37.674Z,13.91
2023-03-20T20:27:16.865Z,13.84
2023-03-20T20:29:51.861Z,13.96
2023-03-20T20:32:23.138Z,13.87
2023-03-20T20:38:28.182Z,13.90
2023-03-20T20:40:31.951Z,14.02
2023-03-20T20:43:02.467Z,14.06
2023-03-20T20:45:32.323Z,14.01
2023-03-20T20:48:01.203Z,13.98
2023-03-20T20:50:30.970Z,13.84
2023-03-20T20:52:59.244Z,13.83
2023-03-20T20:55:27.543Z,13.73
2023-03-20T20:57:57.261Z,13.69
2023-03-20T21:00:37.510Z,13.78
2023-03-20T21:03:09.559Z,13.54
2023-03-20T21:05:41.372Z,13.66
2023-03-20T21:08:09.473Z,13.60
2023-03-20T21:10:37.519Z,13.62
2023-03-20T21:13:08.333Z,13.69
2023-03-20T21:15:39.642Z,13.67
2023-03-20T21:18:07.979Z,13.67
2023-03-20T21:20:36.159Z,13.62
2023-03-20T21:23:04.334Z,13.65
2023-03-20T21:25:40.133Z,13.43
2023-03-20T21:28:11.585Z,13.42
2023-03-20T21:30:51.103Z,13.36
2023-03-20T21:33:30.402Z,13.39
2023-03-20T21:35:58.520Z,13.36
2023-03-20T21:41:15.177Z,13.42
2023-03-20T21:43:47.159Z,13.38
2023-03-20T21:52:48.810Z,13.67
2023-03-20T21:55:15.050Z,13.56
2023-03-20T22:03:10.831Z,13.45
2023-03-20T22:06:45.747Z,13.23
2023-03-20T22:37:28.368Z,13.35
2023-03-20T22:45:03.271Z,13.43
2023-03-20T22:47:32.438Z,13.52
2023-03-20T22:50:01.973Z,13.45
2023-03-20T22:52:45.468Z,13.65
2023-03-20T22:55:16.205Z,13.50
2023-03-20T22:57:56.024Z,13.58
2023-03-20T23:00:28.270Z,13.33
2023-03-20T23:03:06.767Z,13.24
2023-03-20T23:05:43.602Z,13.29
2023-03-20T23:08:13.054Z,13.24
2023-03-20T23:10:44.951Z,13.17
2023-03-20T23:13:13.973Z,13.19
2023-03-20T23:15:41.994Z,13.21
2023-03-20T23:18:11.035Z,13.24
2023-03-20T23:20:39.198Z,13.17
2023-03-20T23:23:08.686Z,13.25
2023-03-20T23:25:39.558Z,13.15
2023-03-20T23:28:09.383Z,13.07
2023-03-20T23:30:46.522Z,13.09
2023-03-20T23:33:17.675Z,12.96
2023-03-20T23:35:46.445Z,12.89
2023-03-20T23:38:15.814Z,12.86
2023-03-20T23:40:50.186Z,12.81
2023-03-20T23:43:18.498Z,12.81
2023-03-20T23:45:46.921Z,12.66
2023-03-20T23:48:15.061Z,12.78
2023-03-20T23:50:52.559Z,12.59
2023-03-20T23:53:23.466Z,12.55
2023-03-20T23:55:53.916Z,12.46
2023-03-20T23:58:23.549Z,12.57
